createdAt,value
2018-12-27T00:00:42.607Z,0.00
2018-12-27T00:01:42.571Z,0.00
2018-12-27T00:02:42.539Z,0.00
2018-12-27T00:03:42.506Z,0.00
2018-12-27T00:04:42.473Z,0.00
2018-12-27T00:05:42.440Z,0.00
2018-12-27T00:06:42.406Z,0.00
2018-12-27T00:07:42.374Z,0.00
2018-12-27T00:08:42.491Z,0.00
2018-12-27T00:09:42.307Z,0.00
2018-12-27T00:10:42.276Z,0.00
2018-12-27T00:11:42.244Z,0.00
2018-12-27T00:12:42.209Z,0.00
2018-12-27T00:13:42.176Z,0.00
2018-12-27T00:14:42.143Z,0.00
2018-12-27T00:15:42.110Z,0.00
2018-12-27T00:16:42.078Z,0.00
2018-12-27T00:17:42.045Z,0.00
2018-12-27T00:18:42.014Z,0.00
2018-12-27T00:19:41.981Z,0.00
2018-12-27T00:20:41.949Z,0.00
2018-12-27T00:21:41.912Z,0.00
2018-12-27T00:22:41.881Z,0.00
2018-12-27T00:23:41.848Z,0.00
2018-12-27T00:24:41.814Z,0.00
2018-12-27T00:25:41.782Z,0.00
2018-12-27T00:26:41.748Z,0.00
2018-12-27T00:27:41.716Z,0.00
2018-12-27T00:28:41.683Z,0.00
2018-12-27T00:29:41.651Z,0.00
2018-12-27T00:30:41.618Z,0.00
2018-12-27T00:31:41.585Z,0.00
2018-12-27T00:32:41.552Z,0.00
2018-12-27T00:33:41.519Z,0.00
2018-12-27T00:34:41.486Z,0.00
2018-12-27T00:35:41.453Z,0.00
2018-12-27T00:36:41.420Z,0.00
2018-12-27T00:37:41.389Z,0.00
2018-12-27T00:38:41.354Z,0.00
2018-12-27T00:39:41.325Z,0.00
2018-12-27T00:40:41.289Z,0.00
2018-12-27T00:41:41.255Z,0.00
2018-12-27T00:42:41.223Z,0.00
2018-12-27T00:43:41.190Z,0.00
2018-12-27T00:44:41.157Z,0.00
2018-12-27T00:45:41.123Z,0.00
2018-12-27T00:46:41.091Z,0.00
2018-12-27T00:47:41.059Z,0.00
2018-12-27T00:48:41.024Z,0.00
2018-12-27T00:49:40.990Z,0.00
2018-12-27T00:50:40.959Z,0.00
2018-12-27T00:51:40.926Z,0.00
2018-12-27T00:52:40.894Z,0.00
2018-12-27T00:53:40.860Z,0.00
2018-12-27T00:54:40.835Z,0.00
2018-12-27T00:55:40.795Z,0.00
2018-12-27T00:56:40.763Z,0.00
2018-12-27T00:57:40.804Z,0.00
2018-12-27T00:58:40.784Z,0.00
2018-12-27T00:59:40.663Z,0.00
2018-12-27T01:00:40.631Z,0.00
2018-12-27T01:01:40.686Z,0.00
2018-12-27T01:02:40.565Z,0.00
2018-12-27T01:03:40.530Z,0.00
2018-12-27T01:04:40.499Z,0.00
2018-12-27T01:05:40.465Z,0.00
2018-12-27T01:06:40.433Z,0.00
2018-12-27T01:07:40.398Z,0.00
2018-12-27T01:08:40.366Z,0.00
2018-12-27T01:09:40.333Z,0.00
2018-12-27T01:10:40.299Z,0.00
2018-12-27T01:11:40.268Z,0.00
2018-12-27T01:12:40.236Z,0.00
2018-12-27T01:13:40.201Z,0.00
2018-12-27T01:14:40.168Z,0.00
2018-12-27T01:15:40.137Z,0.00
2018-12-27T01:16:40.105Z,0.00
2018-12-27T01:17:40.070Z,0.00
2018-12-27T01:18:40.038Z,0.00
2018-12-27T01:19:40.004Z,0.00
2018-12-27T01:20:39.975Z,0.00
2018-12-27T01:21:39.939Z,0.00
2018-12-27T01:22:39.906Z,0.00
2018-12-27T01:23:39.874Z,0.00
2018-12-27T01:24:39.840Z,0.00
2018-12-27T01:25:39.807Z,0.00
2018-12-27T01:26:39.775Z,0.00
2018-12-27T01:27:39.741Z,0.00
2018-12-27T01:28:39.709Z,0.00
2018-12-27T01:29:39.676Z,0.00
2018-12-27T01:30:39.642Z,0.00
2018-12-27T01:31:39.610Z,0.00
2018-12-27T01:32:39.580Z,0.00
2018-12-27T01:33:39.543Z,0.00
2018-12-27T01:34:39.512Z,0.00
2018-12-27T01:35:39.478Z,0.00
2018-12-27T01:36:39.446Z,0.00
2018-12-27T01:37:39.412Z,0.00
2018-12-27T01:38:39.379Z,0.00
2018-12-27T01:39:39.346Z,0.00
2018-12-27T01:40:39.314Z,0.00
2018-12-27T01:41:39.282Z,0.00
2018-12-27T01:42:39.248Z,0.00
2018-12-27T01:43:39.214Z,0.00
2018-12-27T01:44:39.182Z,0.00
2018-12-27T01:45:39.149Z,0.00
2018-12-27T01:46:39.117Z,0.00
2018-12-27T01:47:39.086Z,0.00
2018-12-27T01:48:39.052Z,0.00
2018-12-27T01:49:39.018Z,0.00
2018-12-27T01:50:38.988Z,0.00
2018-12-27T01:51:38.952Z,0.00
2018-12-27T01:52:38.921Z,0.00
2018-12-27T01:53:38.887Z,0.00
2018-12-27T01:54:38.859Z,0.00
2018-12-27T01:55:38.822Z,0.00
2018-12-27T01:56:38.790Z,0.00
2018-12-27T01:57:38.756Z,0.00
2018-12-27T01:58:38.723Z,0.00
2018-12-27T01:59:38.690Z,0.00
2018-12-27T02:00:38.657Z,0.00
2018-12-27T02:01:38.627Z,0.00
2018-12-27T02:02:38.590Z,0.00
2018-12-27T02:03:38.560Z,0.00
2018-12-27T02:04:38.527Z,0.00
2018-12-27T02:05:38.493Z,0.00
2018-12-27T02:06:38.462Z,0.00
2018-12-27T02:07:38.428Z,0.00
2018-12-27T02:08:38.395Z,0.00
2018-12-27T02:09:38.365Z,0.00
2018-12-27T02:10:38.328Z,0.00
2018-12-27T02:11:38.296Z,0.00
2018-12-27T02:12:38.267Z,0.00
2018-12-27T02:13:38.232Z,0.00
2018-12-27T02:14:38.198Z,0.00
2018-12-27T02:15:38.165Z,0.00
2018-12-27T02:16:38.131Z,0.00
2018-12-27T02:17:38.099Z,0.00
2018-12-27T02:18:38.067Z,0.00
2018-12-27T02:19:38.034Z,0.00
2018-12-27T02:20:38.000Z,0.00
2018-12-27T02:21:37.968Z,0.00
2018-12-27T02:22:37.934Z,0.00
2018-12-27T02:23:37.902Z,0.00
2018-12-27T02:24:37.869Z,0.00
2018-12-27T02:25:37.835Z,0.00
2018-12-27T02:26:37.806Z,0.00
2018-12-27T02:27:37.771Z,0.00
2018-12-27T02:28:37.736Z,0.00
2018-12-27T02:29:37.702Z,0.00
2018-12-27T02:30:37.672Z,0.00
2018-12-27T02:31:37.640Z,0.00
2018-12-27T02:32:37.605Z,0.00
2018-12-27T02:33:37.572Z,0.00
2018-12-27T02:34:37.539Z,0.00
2018-12-27T02:35:37.507Z,0.00
2018-12-27T02:36:37.472Z,0.00
2018-12-27T02:37:37.441Z,0.00
2018-12-27T02:38:37.407Z,0.00
2018-12-27T02:39:37.375Z,0.00
2018-12-27T02:40:37.342Z,0.00
2018-12-27T02:41:37.308Z,0.00
2018-12-27T02:42:37.277Z,0.00
2018-12-27T02:43:37.245Z,0.00
2018-12-27T02:44:37.210Z,0.00
2018-12-27T02:45:37.175Z,0.00
2018-12-27T02:46:37.143Z,0.00
2018-12-27T02:47:37.111Z,0.00
2018-12-27T02:48:37.078Z,0.00
2018-12-27T02:49:37.043Z,0.00
2018-12-27T02:50:37.014Z,0.00
2018-12-27T02:51:36.978Z,0.00
2018-12-27T02:52:36.945Z,0.00
2018-12-27T02:53:36.912Z,0.00
2018-12-27T02:54:36.881Z,0.00
2018-12-27T02:55:36.848Z,0.00
2018-12-27T02:56:36.814Z,0.00
2018-12-27T02:57:36.778Z,0.00
2018-12-27T02:58:36.746Z,0.00
2018-12-27T02:59:36.714Z,0.00
2018-12-27T03:00:36.684Z,0.00
2018-12-27T03:01:36.647Z,0.00
2018-12-27T03:02:36.615Z,0.00
2018-12-27T03:03:43.851Z,0.00
2018-12-27T03:04:36.551Z,0.00
2018-12-27T03:05:36.527Z,0.00
2018-12-27T03:06:36.482Z,0.00
2018-12-27T03:07:36.552Z,0.00
2018-12-27T03:08:36.415Z,0.00
2018-12-27T03:09:36.383Z,0.00
2018-12-27T03:10:36.350Z,0.00
2018-12-27T03:11:36.318Z,0.00
2018-12-27T03:12:36.283Z,0.00
2018-12-27T03:13:36.250Z,0.00
2018-12-27T03:14:36.218Z,0.00
2018-12-27T03:15:36.184Z,0.00
2018-12-27T03:16:36.153Z,0.00
2018-12-27T03:17:36.117Z,0.00
2018-12-27T03:18:36.084Z,0.00
2018-12-27T03:19:36.051Z,0.00
2018-12-27T03:20:36.018Z,0.00
2018-12-27T03:21:35.983Z,0.00
2018-12-27T03:22:35.953Z,0.00
2018-12-27T03:23:35.922Z,0.00
2018-12-27T03:24:35.884Z,0.00
2018-12-27T03:25:35.850Z,0.00
2018-12-27T03:26:35.819Z,0.00
2018-12-27T03:27:35.784Z,0.00
2018-12-27T03:28:35.753Z,0.00
2018-12-27T03:29:35.718Z,0.00
2018-12-27T03:30:35.688Z,0.00
2018-12-27T03:31:35.653Z,0.00
2018-12-27T03:32:35.622Z,0.00
2018-12-27T03:33:35.586Z,0.00
2018-12-27T03:34:35.556Z,0.00
2018-12-27T03:35:35.520Z,0.00
2018-12-27T03:36:35.487Z,0.00
2018-12-27T03:37:35.453Z,0.00
2018-12-27T03:38:35.419Z,0.00
2018-12-27T03:39:35.386Z,0.00
2018-12-27T03:40:35.355Z,0.00
2018-12-27T03:41:35.320Z,0.00
2018-12-27T03:42:35.286Z,0.00
2018-12-27T03:43:35.256Z,0.00
2018-12-27T03:44:35.219Z,0.00
2018-12-27T03:45:35.188Z,0.00
2018-12-27T03:46:35.155Z,0.00
2018-12-27T03:47:35.121Z,0.00
2018-12-27T03:48:35.086Z,0.00
2018-12-27T03:49:35.052Z,0.00
2018-12-27T03:50:35.021Z,0.00
2018-12-27T03:51:34.987Z,0.00
2018-12-27T03:52:34.955Z,0.00
2018-12-27T03:53:34.919Z,0.00
2018-12-27T03:54:34.886Z,0.00
2018-12-27T03:55:34.853Z,0.00
2018-12-27T03:56:34.819Z,0.00
2018-12-27T03:57:34.787Z,0.00
2018-12-27T03:58:34.752Z,0.00
2018-12-27T03:59:34.720Z,0.00
2018-12-27T04:00:34.686Z,0.00
2018-12-27T04:01:34.657Z,0.00
2018-12-27T04:02:34.619Z,0.00
2018-12-27T04:03:34.587Z,0.00
2018-12-27T04:04:34.638Z,0.00
2018-12-27T04:05:34.518Z,0.00
2018-12-27T04:06:34.485Z,0.00
2018-12-27T04:07:34.453Z,0.00
2018-12-27T04:08:34.419Z,0.00
2018-12-27T04:09:34.386Z,0.00
2018-12-27T04:10:34.352Z,0.00
2018-12-27T04:11:34.322Z,0.00
2018-12-27T04:12:34.284Z,0.00
2018-12-27T04:13:34.254Z,0.00
2018-12-27T04:14:34.218Z,0.00
2018-12-27T04:15:34.184Z,0.00
2018-12-27T04:16:34.151Z,0.00
2018-12-27T04:17:34.119Z,0.00
2018-12-27T04:18:34.083Z,0.00
2018-12-27T04:19:34.052Z,0.00
2018-12-27T04:20:34.017Z,0.00
2018-12-27T04:21:33.984Z,0.00
2018-12-27T04:22:33.953Z,0.00
2018-12-27T04:23:33.915Z,0.00
2018-12-27T04:24:33.882Z,0.00
2018-12-27T04:25:33.848Z,0.00
2018-12-27T04:26:33.820Z,0.00
2018-12-27T04:27:33.789Z,0.00
2018-12-27T04:28:33.751Z,0.00
2018-12-27T04:29:33.716Z,0.00
2018-12-27T04:30:33.682Z,0.00
2018-12-27T04:31:33.649Z,0.00
2018-12-27T04:32:33.614Z,0.00
2018-12-27T04:33:33.583Z,0.00
2018-12-27T04:34:33.559Z,0.00
2018-12-27T04:35:33.515Z,0.00
2018-12-27T04:36:33.484Z,0.00
2018-12-27T04:37:33.444Z,0.00
2018-12-27T04:38:33.416Z,0.00
2018-12-27T04:39:33.379Z,0.00
2018-12-27T04:40:33.344Z,0.00
2018-12-27T04:41:33.311Z,0.00
2018-12-27T04:42:33.277Z,0.00
2018-12-27T04:43:33.247Z,0.00
2018-12-27T04:44:33.211Z,0.00
2018-12-27T04:45:33.174Z,0.00
2018-12-27T04:46:33.142Z,0.00
2018-12-27T04:47:33.129Z,0.00
2018-12-27T04:48:33.075Z,0.00
2018-12-27T04:49:33.041Z,0.00
2018-12-27T04:50:33.007Z,0.00
2018-12-27T04:51:32.973Z,0.00
2018-12-27T04:52:32.942Z,0.00
2018-12-27T04:53:32.905Z,0.00
2018-12-27T04:54:32.874Z,0.00
2018-12-27T04:55:32.840Z,0.00
2018-12-27T04:56:32.806Z,0.00
2018-12-27T04:57:32.772Z,0.00
2018-12-27T04:58:32.739Z,0.00
2018-12-27T04:59:32.711Z,0.00
2018-12-27T05:00:32.672Z,0.00
2018-12-27T05:01:32.638Z,0.00
2018-12-27T05:02:32.632Z,0.00
2018-12-27T05:03:32.569Z,0.00
2018-12-27T05:04:32.536Z,0.00
2018-12-27T05:05:32.502Z,0.00
2018-12-27T05:06:32.468Z,0.00
2018-12-27T05:07:32.435Z,0.00
2018-12-27T05:08:32.401Z,0.00
2018-12-27T05:09:32.367Z,0.00
2018-12-27T05:10:32.334Z,0.00
2018-12-27T05:11:32.301Z,0.00
2018-12-27T05:12:32.267Z,0.00
2018-12-27T05:13:32.232Z,0.00
2018-12-27T05:14:32.200Z,0.00
2018-12-27T05:15:32.165Z,0.00
2018-12-27T05:16:32.133Z,0.00
2018-12-27T05:17:32.097Z,0.00
2018-12-27T05:18:32.065Z,0.00
2018-12-27T05:19:32.031Z,0.00
2018-12-27T05:20:31.999Z,0.00
2018-12-27T05:21:31.963Z,0.00
2018-12-27T05:22:31.929Z,0.00
2018-12-27T05:23:31.895Z,0.00
2018-12-27T05:24:31.863Z,0.00
2018-12-27T05:25:31.827Z,0.00
2018-12-27T05:26:31.797Z,0.00
2018-12-27T05:27:31.763Z,0.00
2018-12-27T05:28:31.727Z,0.00
2018-12-27T05:29:31.698Z,0.00
2018-12-27T05:30:31.659Z,0.00
2018-12-27T05:31:31.626Z,0.00
2018-12-27T05:32:31.592Z,0.00
2018-12-27T05:33:31.557Z,0.00
2018-12-27T05:34:31.524Z,0.00
2018-12-27T05:35:31.490Z,0.00
2018-12-27T05:36:31.458Z,0.00
2018-12-27T05:37:31.428Z,0.00
2018-12-27T05:38:31.389Z,0.00
2018-12-27T05:39:31.354Z,0.00
2018-12-27T05:40:31.321Z,0.00
2018-12-27T05:41:31.287Z,0.00
2018-12-27T05:42:31.253Z,0.00
2018-12-27T05:43:31.222Z,0.00
2018-12-27T05:44:31.188Z,0.00
2018-12-27T05:45:31.152Z,0.00
2018-12-27T05:46:31.119Z,0.00
2018-12-27T05:47:31.087Z,0.00
2018-12-27T05:48:31.052Z,0.00
2018-12-27T05:49:31.016Z,0.00
2018-12-27T05:50:30.987Z,0.00
2018-12-27T05:51:30.953Z,0.00
2018-12-27T05:52:30.918Z,0.00
2018-12-27T05:53:30.884Z,0.00
2018-12-27T05:54:30.850Z,0.00
2018-12-27T05:55:34.520Z,0.00
2018-12-27T05:56:30.782Z,0.00
2018-12-27T05:57:30.751Z,0.00
2018-12-27T05:58:30.714Z,0.00
2018-12-27T05:59:30.680Z,0.00
2018-12-27T06:00:30.650Z,0.00
2018-12-27T06:01:30.612Z,0.00
2018-12-27T06:02:30.580Z,0.00
2018-12-27T06:03:30.545Z,0.00
2018-12-27T06:04:33.857Z,0.00
2018-12-27T06:05:30.477Z,0.00
2018-12-27T06:06:30.445Z,0.00
2018-12-27T06:07:30.412Z,0.00
2018-12-27T06:08:30.377Z,0.00
2018-12-27T06:09:30.342Z,0.00
2018-12-27T06:10:30.309Z,0.00
2018-12-27T06:11:30.276Z,0.00
2018-12-27T06:12:30.241Z,0.00
2018-12-27T06:13:30.207Z,0.00
2018-12-27T06:14:30.173Z,0.00
2018-12-27T06:15:30.139Z,0.00
2018-12-27T06:16:30.106Z,0.00
2018-12-27T06:17:30.072Z,0.00
2018-12-27T06:18:30.037Z,0.00
2018-12-27T06:19:30.005Z,0.00
2018-12-27T06:20:29.971Z,0.00
2018-12-27T06:21:29.937Z,0.00
2018-12-27T06:22:29.905Z,0.00
2018-12-27T06:23:29.868Z,0.00
2018-12-27T06:24:29.836Z,0.00
2018-12-27T06:25:29.800Z,0.00
2018-12-27T06:26:29.768Z,0.00
2018-12-27T06:27:29.734Z,0.00
2018-12-27T06:28:29.700Z,0.00
2018-12-27T06:29:29.665Z,0.00
2018-12-27T06:30:29.633Z,0.00
2018-12-27T06:31:29.599Z,0.00
2018-12-27T06:32:29.565Z,0.00
2018-12-27T06:33:29.529Z,0.00
2018-12-27T06:34:29.497Z,0.00
2018-12-27T06:35:29.465Z,0.00
2018-12-27T06:36:29.429Z,0.00
2018-12-27T06:37:29.394Z,0.00
2018-12-27T06:38:29.361Z,0.00
2018-12-27T06:39:29.328Z,0.00
2018-12-27T06:40:29.293Z,0.00
2018-12-27T06:41:29.260Z,0.00
2018-12-27T06:42:29.226Z,0.00
2018-12-27T06:43:29.192Z,0.00
2018-12-27T06:44:29.158Z,0.00
2018-12-27T06:45:29.124Z,0.00
2018-12-27T06:46:29.090Z,0.00
2018-12-27T06:47:29.056Z,0.00
2018-12-27T06:48:29.025Z,0.00
2018-12-27T06:49:28.989Z,0.00
2018-12-27T06:50:28.954Z,0.00
2018-12-27T06:51:28.921Z,0.00
2018-12-27T06:52:28.886Z,0.00
2018-12-27T06:53:28.852Z,4.00
2018-12-27T06:54:28.817Z,4.00
2018-12-27T06:55:28.784Z,4.00
2018-12-27T06:56:28.751Z,4.00
2018-12-27T06:57:28.717Z,4.00
2018-12-27T06:58:28.682Z,4.00
2018-12-27T06:59:28.648Z,4.00
2018-12-27T07:00:28.614Z,8.00
2018-12-27T07:01:28.581Z,8.00
2018-12-27T07:02:28.548Z,8.00
2018-12-27T07:03:28.512Z,12.00
2018-12-27T07:04:28.480Z,12.00
2018-12-27T07:05:28.444Z,12.00
2018-12-27T07:06:28.410Z,16.00
2018-12-27T07:07:28.376Z,16.00
2018-12-27T07:08:28.344Z,20.00
2018-12-27T07:09:28.308Z,24.00
2018-12-27T07:10:28.278Z,28.00
2018-12-27T07:11:28.243Z,32.00
2018-12-27T07:12:28.209Z,36.00
2018-12-27T07:13:28.174Z,36.00
2018-12-27T07:14:28.139Z,36.00
2018-12-27T07:15:28.105Z,40.00
2018-12-27T07:16:28.077Z,44.00
2018-12-27T07:17:28.038Z,52.00
2018-12-27T07:18:28.003Z,52.00
2018-12-27T07:19:27.970Z,64.00
2018-12-27T07:20:27.936Z,68.00
2018-12-27T07:21:27.908Z,76.00
2018-12-27T07:22:27.870Z,76.00
2018-12-27T07:23:27.834Z,84.00
2018-12-27T07:24:27.801Z,88.00
2018-12-27T07:25:27.768Z,104.00
2018-12-27T07:26:27.734Z,100.00
2018-12-27T07:27:27.698Z,108.00
2018-12-27T07:28:27.665Z,144.00
2018-12-27T07:29:27.631Z,140.00
2018-12-27T07:30:27.597Z,144.00
2018-12-27T07:31:27.563Z,160.00
2018-12-27T07:32:27.530Z,176.00
2018-12-27T07:33:27.496Z,200.00
2018-12-27T07:34:27.463Z,192.00
2018-12-27T07:35:27.427Z,228.00
2018-12-27T07:36:27.394Z,244.00
2018-12-27T07:37:27.360Z,232.00
2018-12-27T07:38:27.326Z,236.00
2018-12-27T07:39:27.292Z,264.00
2018-12-27T07:40:27.258Z,308.00
2018-12-27T07:41:27.223Z,324.00
2018-12-27T07:42:27.194Z,332.00
2018-12-27T07:43:27.155Z,352.00
2018-12-27T07:44:27.122Z,412.00
2018-12-27T07:45:27.087Z,516.00
2018-12-27T07:46:27.053Z,504.00
2018-12-27T07:47:27.022Z,468.00
2018-12-27T07:48:26.987Z,492.00
2018-12-27T07:49:26.953Z,532.00
2018-12-27T07:50:26.918Z,588.00
2018-12-27T07:51:26.886Z,564.00
2018-12-27T07:52:26.851Z,500.00
2018-12-27T07:53:26.817Z,532.00
2018-12-27T07:54:26.783Z,580.00
2018-12-27T07:55:26.751Z,628.00
2018-12-27T07:56:26.716Z,600.00
2018-12-27T07:57:26.681Z,684.00
2018-12-27T07:58:26.648Z,816.00
2018-12-27T07:59:26.614Z,772.00
2018-12-27T08:00:26.581Z,740.00
2018-12-27T08:01:26.546Z,752.00
2018-12-27T08:02:26.512Z,816.00
2018-12-27T08:03:26.477Z,852.00
2018-12-27T08:04:26.444Z,932.00
2018-12-27T08:05:26.408Z,948.00
2018-12-27T08:06:26.379Z,996.00
2018-12-27T08:07:26.342Z,944.00
2018-12-27T08:08:26.308Z,1052.00
2018-12-27T08:09:26.276Z,1144.00
2018-12-27T08:10:26.241Z,1220.00
2018-12-27T08:11:26.210Z,1080.00
2018-12-27T08:12:26.175Z,1024.00
2018-12-27T08:13:26.139Z,1092.00
2018-12-27T08:14:26.105Z,1116.00
2018-12-27T08:15:26.072Z,1184.00
2018-12-27T08:16:26.038Z,1240.00
2018-12-27T08:17:26.003Z,1320.00
2018-12-27T08:18:25.969Z,1168.00
2018-12-27T08:19:25.935Z,1124.00
2018-12-27T08:20:25.903Z,1220.00
2018-12-27T08:21:25.868Z,1200.00
2018-12-27T08:22:25.833Z,1292.00
2018-12-27T08:23:25.800Z,1268.00
2018-12-27T08:24:25.766Z,1380.00
2018-12-27T08:25:25.732Z,1356.00
2018-12-27T08:26:25.698Z,1420.00
2018-12-27T08:27:25.665Z,1400.00
2018-12-27T08:28:25.633Z,1460.00
2018-12-27T08:29:25.598Z,1452.00
2018-12-27T08:30:25.563Z,1328.00
2018-12-27T08:31:25.536Z,1372.00
2018-12-27T08:32:25.496Z,1400.00
2018-12-27T08:33:25.475Z,1552.00
2018-12-27T08:34:25.426Z,1564.00
2018-12-27T08:35:25.393Z,1632.00
2018-12-27T08:36:25.364Z,1652.00
2018-12-27T08:37:25.323Z,1632.00
2018-12-27T08:38:25.291Z,1780.00
2018-12-27T08:39:25.258Z,1696.00
2018-12-27T08:40:25.227Z,1692.00
2018-12-27T08:41:25.190Z,1704.00
2018-12-27T08:42:25.156Z,1932.00
2018-12-27T08:43:25.122Z,2112.00
2018-12-27T08:44:25.106Z,2096.00
2018-12-27T08:45:25.053Z,2064.00
2018-12-27T08:46:25.021Z,2012.00
2018-12-27T08:47:25.740Z,2208.00
2018-12-27T08:48:24.952Z,2248.00
2018-12-27T08:49:24.919Z,2408.00
2018-12-27T08:50:24.884Z,2272.00
2018-12-27T08:51:24.859Z,2512.00
2018-12-27T08:52:24.817Z,2532.00
2018-12-27T08:53:24.782Z,2964.00
2018-12-27T08:54:24.749Z,3168.00
2018-12-27T08:55:24.714Z,3208.00
2018-12-27T08:56:24.681Z,3168.00
2018-12-27T08:57:24.648Z,3544.00
2018-12-27T08:58:24.613Z,3964.00
2018-12-27T08:59:24.580Z,4148.00
2018-12-27T09:00:24.547Z,3468.00
2018-12-27T09:01:24.511Z,3556.00
2018-12-27T09:02:24.477Z,3420.00
2018-12-27T09:03:24.444Z,4268.00
2018-12-27T09:04:24.410Z,4272.00
2018-12-27T09:05:24.377Z,4036.00
2018-12-27T09:06:24.343Z,3804.00
2018-12-27T09:07:24.308Z,4100.00
2018-12-27T09:08:24.274Z,3916.00
2018-12-27T09:09:24.240Z,3576.00
2018-12-27T09:10:24.209Z,4100.00
2018-12-27T09:11:24.174Z,3764.00
2018-12-27T09:12:24.139Z,3848.00
2018-12-27T09:13:24.108Z,3724.00
2018-12-27T09:14:24.071Z,4024.00
2018-12-27T09:15:24.037Z,3808.00
2018-12-27T09:16:24.005Z,3316.00
2018-12-27T09:17:23.970Z,3704.00
2018-12-27T09:18:23.936Z,3780.00
2018-12-27T09:19:23.902Z,3564.00
2018-12-27T09:20:23.868Z,3528.00
2018-12-27T09:21:23.833Z,3464.00
2018-12-27T09:22:23.799Z,3616.00
2018-12-27T09:23:23.768Z,3360.00
2018-12-27T09:24:23.733Z,3684.00
2018-12-27T09:25:23.700Z,3924.00
2018-12-27T09:26:23.666Z,3928.00
2018-12-27T09:27:23.634Z,3416.00
2018-12-27T09:28:23.599Z,3252.00
2018-12-27T09:29:23.564Z,3356.00
2018-12-27T09:30:23.531Z,3080.00
2018-12-27T09:31:23.498Z,3096.00
2018-12-27T09:32:23.464Z,3816.00
2018-12-27T09:33:23.429Z,3308.00
2018-12-27T09:34:23.397Z,2808.00
2018-12-27T09:35:26.543Z,2900.00
2018-12-27T09:36:23.328Z,2604.00
2018-12-27T09:37:23.295Z,2696.00
2018-12-27T09:38:23.262Z,3576.00
2018-12-27T09:39:23.227Z,3996.00
2018-12-27T09:40:23.194Z,3716.00
2018-12-27T09:41:23.160Z,2920.00
2018-12-27T09:42:23.127Z,2452.00
2018-12-27T09:43:23.094Z,2520.00
2018-12-27T09:44:23.059Z,2960.00
2018-12-27T09:45:23.092Z,3388.00
2018-12-27T09:46:22.992Z,2996.00
2018-12-27T09:47:22.958Z,2928.00
2018-12-27T09:48:22.926Z,2848.00
2018-12-27T09:49:22.891Z,2564.00
2018-12-27T09:50:22.858Z,2540.00
2018-12-27T09:51:22.828Z,2772.00
2018-12-27T09:52:22.792Z,3088.00
2018-12-27T09:53:22.755Z,3044.00
2018-12-27T09:54:22.725Z,3184.00
2018-12-27T09:55:22.690Z,3308.00
2018-12-27T09:56:22.657Z,3548.00
2018-12-27T09:57:22.622Z,3800.00
2018-12-27T09:58:22.590Z,3792.00
2018-12-27T09:59:22.556Z,3316.00
2018-12-27T10:00:22.523Z,3100.00
2018-12-27T10:01:22.487Z,3440.00
2018-12-27T10:02:22.456Z,4052.00
2018-12-27T10:03:22.421Z,3468.00
2018-12-27T10:04:22.387Z,3108.00
2018-12-27T10:05:22.354Z,3624.00
2018-12-27T10:06:22.322Z,3724.00
2018-12-27T10:07:22.287Z,3352.00
2018-12-27T10:08:22.253Z,3688.00
2018-12-27T10:09:22.220Z,3612.00
2018-12-27T10:10:22.185Z,3636.00
2018-12-27T10:11:22.153Z,3592.00
2018-12-27T10:12:22.120Z,3768.00
2018-12-27T10:13:22.086Z,3816.00
2018-12-27T10:14:22.053Z,3800.00
2018-12-27T10:15:22.023Z,3816.00
2018-12-27T10:16:21.986Z,3956.00
2018-12-27T10:17:21.951Z,3864.00
2018-12-27T10:18:21.918Z,4400.00
2018-12-27T10:19:21.885Z,4136.00
2018-12-27T10:20:21.852Z,4812.00
2018-12-27T10:21:21.820Z,5388.00
2018-12-27T10:22:21.784Z,5112.00
2018-12-27T10:23:21.750Z,4556.00
2018-12-27T10:24:21.723Z,4752.00
2018-12-27T10:25:21.683Z,5240.00
2018-12-27T10:26:21.648Z,5924.00
2018-12-27T10:27:21.615Z,5744.00
2018-12-27T10:28:21.583Z,6164.00
2018-12-27T10:29:21.548Z,7016.00
2018-12-27T10:30:21.514Z,5792.00
2018-12-27T10:31:21.485Z,5544.00
2018-12-27T10:32:21.448Z,6180.00
2018-12-27T10:33:21.415Z,5612.00
2018-12-27T10:34:21.382Z,5580.00
2018-12-27T10:35:21.351Z,5520.00
2018-12-27T10:36:21.315Z,6108.00
2018-12-27T10:37:21.281Z,5236.00
2018-12-27T10:38:21.249Z,4564.00
2018-12-27T10:39:21.215Z,5600.00
2018-12-27T10:40:21.182Z,5432.00
2018-12-27T10:41:21.148Z,4932.00
2018-12-27T10:42:21.118Z,5260.00
2018-12-27T10:43:21.081Z,5892.00
2018-12-27T10:44:21.048Z,5664.00
2018-12-27T10:45:21.014Z,5640.00
2018-12-27T10:46:20.981Z,4676.00
2018-12-27T10:47:20.948Z,4672.00
2018-12-27T10:48:20.914Z,4608.00
2018-12-27T10:49:20.881Z,5116.00
2018-12-27T10:50:20.848Z,5068.00
2018-12-27T10:51:20.814Z,4772.00
2018-12-27T10:52:20.780Z,5080.00
2018-12-27T10:53:20.747Z,4972.00
2018-12-27T10:54:20.712Z,4716.00
2018-12-27T10:55:20.679Z,5116.00
2018-12-27T10:56:20.645Z,5520.00
2018-12-27T10:57:20.613Z,5600.00
2018-12-27T10:58:20.578Z,5200.00
2018-12-27T10:59:20.545Z,4860.00
2018-12-27T11:00:20.512Z,5020.00
2018-12-27T11:01:20.478Z,5160.00
2018-12-27T11:02:20.444Z,5516.00
2018-12-27T11:03:20.411Z,5964.00
2018-12-27T11:04:20.378Z,5604.00
2018-12-27T11:05:20.344Z,4860.00
2018-12-27T11:06:20.310Z,5084.00
2018-12-27T11:07:20.277Z,5404.00
2018-12-27T11:08:20.244Z,5416.00
2018-12-27T11:09:20.210Z,5164.00
2018-12-27T11:10:20.176Z,5004.00
2018-12-27T11:11:20.143Z,4736.00
2018-12-27T11:12:20.111Z,4696.00
2018-12-27T11:13:20.076Z,4896.00
2018-12-27T11:14:20.057Z,4656.00
2018-12-27T11:15:20.011Z,5344.00
2018-12-27T11:16:19.976Z,5020.00
2018-12-27T11:17:19.942Z,4624.00
2018-12-27T11:18:19.907Z,4784.00
2018-12-27T11:19:19.876Z,4628.00
2018-12-27T11:20:19.845Z,4380.00
2018-12-27T11:21:19.808Z,3760.00
2018-12-27T11:22:19.775Z,4392.00
2018-12-27T11:23:19.742Z,4504.00
2018-12-27T11:24:19.710Z,4640.00
2018-12-27T11:25:19.675Z,5584.00
2018-12-27T11:26:19.661Z,6176.00
2018-12-27T11:27:19.607Z,6404.00
2018-12-27T11:28:19.576Z,6336.00
2018-12-27T11:29:19.542Z,6456.00
2018-12-27T11:30:19.511Z,6848.00
2018-12-27T11:31:19.474Z,8468.00
2018-12-27T11:32:19.443Z,8608.00
2018-12-27T11:33:19.407Z,8232.00
2018-12-27T11:34:19.376Z,8188.00
2018-12-27T11:35:19.342Z,7368.00
2018-12-27T11:36:19.310Z,6980.00
2018-12-27T11:37:19.279Z,6668.00
2018-12-27T11:38:19.241Z,5996.00
2018-12-27T11:39:19.210Z,5472.00
2018-12-27T11:40:19.175Z,4880.00
2018-12-27T11:41:19.142Z,4340.00
2018-12-27T11:42:19.108Z,3964.00
2018-12-27T11:43:19.078Z,3940.00
2018-12-27T11:44:19.044Z,3884.00
2018-12-27T11:45:19.010Z,3560.00
2018-12-27T11:46:18.976Z,3684.00
2018-12-27T11:47:18.951Z,3580.00
2018-12-27T11:48:18.911Z,3440.00
2018-12-27T11:49:18.880Z,3128.00
2018-12-27T11:50:18.845Z,3256.00
2018-12-27T11:51:18.812Z,3556.00
2018-12-27T11:52:18.778Z,3908.00
2018-12-27T11:53:18.745Z,4028.00
2018-12-27T11:54:18.714Z,4564.00
2018-12-27T11:55:18.680Z,4396.00
2018-12-27T11:56:18.645Z,4172.00
2018-12-27T11:57:18.614Z,4312.00
2018-12-27T11:58:18.583Z,4108.00
2018-12-27T11:59:18.549Z,4084.00
2018-12-27T12:00:18.514Z,3692.00
2018-12-27T12:01:18.479Z,3192.00
2018-12-27T12:02:18.455Z,3180.00
2018-12-27T12:03:18.414Z,3020.00
2018-12-27T12:04:18.381Z,2852.00
2018-12-27T12:05:18.347Z,2772.00
2018-12-27T12:06:18.314Z,2736.00
2018-12-27T12:07:18.280Z,2648.00
2018-12-27T12:08:18.249Z,2960.00
2018-12-27T12:09:18.214Z,3168.00
2018-12-27T12:10:18.180Z,3084.00
2018-12-27T12:11:18.148Z,3144.00
2018-12-27T12:12:18.115Z,3100.00
2018-12-27T12:13:18.081Z,2940.00
2018-12-27T12:14:18.050Z,2936.00
2018-12-27T12:15:18.015Z,3128.00
2018-12-27T12:16:17.982Z,2920.00
2018-12-27T12:17:17.949Z,2732.00
2018-12-27T12:18:17.916Z,2772.00
2018-12-27T12:19:17.884Z,2764.00
2018-12-27T12:20:17.848Z,2764.00
2018-12-27T12:21:17.818Z,2652.00
2018-12-27T12:22:17.782Z,2592.00
2018-12-27T12:23:17.750Z,2448.00
2018-12-27T12:24:17.720Z,2520.00
2018-12-27T12:25:17.683Z,2504.00
2018-12-27T12:26:17.651Z,2668.00
2018-12-27T12:27:17.616Z,2660.00
2018-12-27T12:28:17.584Z,2460.00
2018-12-27T12:29:17.550Z,2556.00
2018-12-27T12:30:17.517Z,2688.00
2018-12-27T12:31:17.484Z,2536.00
2018-12-27T12:32:17.451Z,2596.00
2018-12-27T12:33:17.419Z,2624.00
2018-12-27T12:34:17.385Z,2660.00
2018-12-27T12:35:17.452Z,2604.00
2018-12-27T12:36:17.319Z,2320.00
2018-12-27T12:37:17.285Z,2372.00
2018-12-27T12:38:17.253Z,2344.00
2018-12-27T12:39:17.220Z,2448.00
2018-12-27T12:40:17.188Z,2420.00
2018-12-27T12:41:17.153Z,2192.00
2018-12-27T12:42:17.464Z,2124.00
2018-12-27T12:43:17.089Z,2116.00
2018-12-27T12:44:17.054Z,1968.00
2018-12-27T12:45:17.023Z,1860.00
2018-12-27T12:46:16.989Z,1724.00